CCA4510 ZSPD-ZUUU
Flight info
| Callsign | CCA4510 |
|---|---|
| Flight time | N/A |
| Altitude | 34100 |
| Route | PIK81D/17L PIKAS G330 UNTAN G345 OLRIS R343 MADUK W51 LEGIV W164 ADGOL W50 XSH W80 URGEG W231 EKOKA ZUUU |
| Aircraft | A359/H-SDE2E3FGHIJ4J5M1RWXYZ/LB2D1 |
Departure
| Time | 2026-05-04 12:19 |
|---|---|
| Airport | Shanghai Pudong International Airport (ZSPD) |
Arrival
| Time | N/A |
|---|---|
| Airport | Chengdu Shuangliu International Airport (ZUUU) |
| Time | Latitude | Longitude | Altitude | Speed | Heading |
|---|---|---|---|---|---|
| 2026-05-04 11:56 | 31.15221 | 121.80789 | 28 ft | 0 kts | 252° |
| 2026-05-04 12:05 | 31.15226 | 121.80805 | 28 ft | 4 kts | 252° |
| 2026-05-04 12:05 | 31.15234 | 121.80834 | 26 ft | 4 kts | 250° |
| 2026-05-04 12:05 | 31.15246 | 121.80861 | 28 ft | 4 kts | 225° |
| 2026-05-04 12:05 | 31.15264 | 121.80871 | 28 ft | 2 kts | 163° |
| 2026-05-04 12:06 | 31.15285 | 121.80864 | 28 ft | 4 kts | 162° |
| 2026-05-04 12:06 | 31.15299 | 121.80858 | 28 ft | 2 kts | 162° |
| 2026-05-04 12:09 | 31.15293 | 121.80861 | 29 ft | 4 kts | 162° |
| 2026-05-04 12:09 | 31.15242 | 121.80880 | 29 ft | 12 kts | 162° |
| 2026-05-04 12:09 | 31.15141 | 121.80918 | 29 ft | 18 kts | 162° |
| 2026-05-04 12:09 | 31.15006 | 121.80969 | 29 ft | 21 kts | 162° |
| 2026-05-04 12:10 | 31.14862 | 121.81023 | 29 ft | 22 kts | 162° |
| 2026-05-04 12:10 | 31.14709 | 121.81081 | 29 ft | 23 kts | 162° |
| 2026-05-04 12:10 | 31.14629 | 121.81111 | 29 ft | 0 kts | 162° |
| 2026-05-04 12:11 | 31.14627 | 121.81112 | 29 ft | 2 kts | 162° |
| 2026-05-04 12:11 | 31.14567 | 121.81134 | 29 ft | 14 kts | 162° |
| 2026-05-04 12:11 | 31.14473 | 121.81166 | 29 ft | 13 kts | 176° |
| 2026-05-04 12:12 | 31.14421 | 121.81097 | 29 ft | 13 kts | 254° |
| 2026-05-04 12:12 | 31.14391 | 121.80978 | 29 ft | 19 kts | 252° |
| 2026-05-04 12:12 | 31.14348 | 121.80821 | 29 ft | 22 kts | 252° |
| 2026-05-04 12:12 | 31.14300 | 121.80649 | 29 ft | 23 kts | 252° |
| 2026-05-04 12:13 | 31.14249 | 121.80466 | 29 ft | 24 kts | 252° |
| 2026-05-04 12:14 | 31.14212 | 121.79540 | 29 ft | 20 kts | 342° |
| 2026-05-04 12:15 | 31.14369 | 121.79481 | 29 ft | 27 kts | 342° |
| 2026-05-04 12:15 | 31.14553 | 121.79411 | 29 ft | 29 kts | 342° |
| 2026-05-04 12:15 | 31.14745 | 121.79339 | 30 ft | 29 kts | 342° |
| 2026-05-04 12:15 | 31.14943 | 121.79265 | 30 ft | 30 kts | 342° |
| 2026-05-04 12:16 | 31.15128 | 121.79194 | 28 ft | 25 kts | 342° |
| 2026-05-04 12:16 | 31.15300 | 121.79129 | 29 ft | 26 kts | 342° |
| 2026-05-04 12:16 | 31.15480 | 121.79062 | 28 ft | 28 kts | 342° |
| 2026-05-04 12:16 | 31.15667 | 121.78991 | 28 ft | 29 kts | 342° |
| 2026-05-04 12:17 | 31.15860 | 121.78919 | 29 ft | 30 kts | 342° |
| 2026-05-04 12:17 | 31.16054 | 121.78845 | 29 ft | 28 kts | 342° |
| 2026-05-04 12:17 | 31.16110 | 121.78824 | 29 ft | 1 kts | 341° |
| 2026-05-04 12:17 | 31.16143 | 121.78791 | 29 ft | 9 kts | 296° |
| 2026-05-04 12:18 | 31.16136 | 121.78711 | 29 ft | 11 kts | 256° |
| 2026-05-04 12:18 | 31.16093 | 121.78626 | 29 ft | 12 kts | 204° |
| 2026-05-04 12:18 | 31.16019 | 121.78639 | 28 ft | 11 kts | 161° |
| 2026-05-04 12:18 | 31.15890 | 121.78688 | 28 ft | 44 kts | 162° |
| 2026-05-04 12:19 | 31.15366 | 121.78885 | 27 ft | 110 kts | 162° |
| 2026-05-04 12:19 | 31.14485 | 121.79223 | 33 ft | 163 kts | 162° |
| 2026-05-04 12:19 | 31.13340 | 121.79642 | 472 ft | 177 kts | 163° |
| 2026-05-04 12:19 | 31.12129 | 121.80070 | 1011 ft | 177 kts | 167° |
| 2026-05-04 12:20 | 31.11013 | 121.80440 | 1323 ft | 158 kts | 169° |
| 2026-05-04 12:20 | 31.09979 | 121.80775 | 1558 ft | 156 kts | 169° |
| 2026-05-04 12:20 | 31.08926 | 121.81118 | 1811 ft | 157 kts | 170° |
| 2026-05-04 12:20 | 31.07871 | 121.81465 | 2060 ft | 158 kts | 170° |
| 2026-05-04 12:21 | 31.06854 | 121.81804 | 2296 ft | 159 kts | 170° |
| 2026-05-04 12:21 | 31.05750 | 121.82173 | 2549 ft | 161 kts | 170° |
| 2026-05-04 12:21 | 31.04667 | 121.82537 | 2803 ft | 163 kts | 169° |
| 2026-05-04 12:21 | 31.03571 | 121.82903 | 3017 ft | 166 kts | 169° |
| 2026-05-04 12:22 | 31.02398 | 121.83164 | 3269 ft | 180 kts | 180° |
| 2026-05-04 12:22 | 31.01553 | 121.83134 | 3513 ft | 189 kts | 192° |
| 2026-05-04 12:22 | 31.00261 | 121.82646 | 3906 ft | 201 kts | 212° |
| 2026-05-04 12:22 | 30.99151 | 121.81609 | 4274 ft | 210 kts | 232° |
| 2026-05-04 12:23 | 30.98414 | 121.80128 | 4630 ft | 215 kts | 252° |
| 2026-05-04 12:23 | 30.97932 | 121.78413 | 5011 ft | 231 kts | 256° |
| 2026-05-04 12:23 | 30.97458 | 121.76552 | 5413 ft | 249 kts | 256° |
| 2026-05-04 12:23 | 30.96944 | 121.74577 | 5783 ft | 264 kts | 256° |
| 2026-05-04 12:24 | 30.96454 | 121.72470 | 5885 ft | 268 kts | 263° |
| 2026-05-04 12:24 | 30.96485 | 121.70345 | 5895 ft | 263 kts | 282° |
| 2026-05-04 12:24 | 30.96862 | 121.68251 | 5978 ft | 265 kts | 285° |
| 2026-05-04 12:24 | 30.97280 | 121.66120 | 6420 ft | 267 kts | 285° |
| 2026-05-04 12:25 | 30.97679 | 121.64040 | 7097 ft | 268 kts | 285° |
| 2026-05-04 12:25 | 30.98081 | 121.61910 | 7861 ft | 270 kts | 286° |
| 2026-05-04 12:25 | 30.98550 | 121.59803 | 8603 ft | 269 kts | 294° |
| 2026-05-04 12:25 | 30.99443 | 121.57907 | 9375 ft | 268 kts | 311° |
| 2026-05-04 12:26 | 31.00824 | 121.56451 | 10066 ft | 269 kts | 328° |
| 2026-05-04 12:26 | 31.02431 | 121.55252 | 10632 ft | 278 kts | 330° |
| 2026-05-04 12:26 | 31.04132 | 121.54046 | 11008 ft | 298 kts | 330° |
| 2026-05-04 12:26 | 31.05978 | 121.52748 | 11316 ft | 317 kts | 330° |
| 2026-05-04 12:27 | 31.07914 | 121.51385 | 11699 ft | 333 kts | 329° |
| 2026-05-04 12:27 | 31.09891 | 121.49985 | 12135 ft | 345 kts | 329° |
| 2026-05-04 12:27 | 31.11988 | 121.48498 | 12873 ft | 349 kts | 329° |
| 2026-05-04 12:27 | 31.14085 | 121.47013 | 13470 ft | 357 kts | 329° |
| 2026-05-04 12:28 | 31.16238 | 121.45487 | 14031 ft | 364 kts | 328° |
| 2026-05-04 12:28 | 31.18380 | 121.43969 | 14594 ft | 368 kts | 328° |
| 2026-05-04 12:28 | 31.20583 | 121.42406 | 15187 ft | 373 kts | 328° |
| 2026-05-04 12:28 | 31.22822 | 121.40817 | 15793 ft | 377 kts | 328° |
| 2026-05-04 12:29 | 31.25066 | 121.39226 | 16429 ft | 381 kts | 327° |
| 2026-05-04 12:29 | 31.27350 | 121.37604 | 17061 ft | 385 kts | 327° |
| 2026-05-04 12:29 | 31.29617 | 121.35994 | 17660 ft | 388 kts | 327° |
| 2026-05-04 12:29 | 31.31930 | 121.34351 | 18298 ft | 391 kts | 327° |
| 2026-05-04 12:30 | 31.34264 | 121.32693 | 18848 ft | 394 kts | 326° |
| 2026-05-04 12:30 | 31.36588 | 121.31039 | 19434 ft | 396 kts | 326° |
| 2026-05-04 12:30 | 31.38989 | 121.29330 | 20050 ft | 398 kts | 326° |
| 2026-05-04 12:30 | 31.41336 | 121.27659 | 20609 ft | 401 kts | 326° |
| 2026-05-04 12:31 | 31.43726 | 121.25956 | 21196 ft | 404 kts | 326° |
| 2026-05-04 12:31 | 31.46142 | 121.24233 | 21784 ft | 407 kts | 326° |
| 2026-05-04 12:31 | 31.48560 | 121.22509 | 22379 ft | 410 kts | 326° |
| 2026-05-04 12:31 | 31.51008 | 121.20762 | 22957 ft | 413 kts | 326° |
| 2026-05-04 12:32 | 31.53470 | 121.19003 | 23520 ft | 417 kts | 326° |
| 2026-05-04 12:32 | 31.58349 | 121.15515 | 24495 ft | 422 kts | 325° |
| 2026-05-04 12:32 | 31.60870 | 121.13711 | 25010 ft | 424 kts | 324° |
| 2026-05-04 12:33 | 31.63412 | 121.11891 | 25518 ft | 426 kts | 324° |
| 2026-05-04 12:33 | 31.65940 | 121.10080 | 26042 ft | 428 kts | 324° |
| 2026-05-04 12:33 | 31.68459 | 121.08274 | 26578 ft | 429 kts | 323° |
| 2026-05-04 12:33 | 31.71033 | 121.06427 | 27059 ft | 431 kts | 323° |
| 2026-05-04 12:34 | 31.73575 | 121.04602 | 27511 ft | 434 kts | 322° |
| 2026-05-04 12:34 | 31.76158 | 121.02746 | 27967 ft | 436 kts | 322° |
| 2026-05-04 12:34 | 31.78754 | 121.00880 | 28442 ft | 439 kts | 322° |
| 2026-05-04 12:34 | 31.81381 | 120.98990 | 28890 ft | 441 kts | 321° |
| 2026-05-04 12:35 | 31.83994 | 120.97108 | 29327 ft | 444 kts | 321° |
| 2026-05-04 12:35 | 31.86638 | 120.95203 | 29770 ft | 446 kts | 321° |
| 2026-05-04 12:35 | 31.89293 | 120.93289 | 30158 ft | 448 kts | 321° |
| 2026-05-04 12:35 | 31.91967 | 120.91361 | 30484 ft | 451 kts | 321° |
| 2026-05-04 12:36 | 31.94653 | 120.89408 | 30820 ft | 452 kts | 320° |
| 2026-05-04 12:36 | 31.97201 | 120.87253 | 30937 ft | 453 kts | 316° |
| 2026-05-04 12:36 | 31.99476 | 120.84734 | 31149 ft | 450 kts | 308° |
| 2026-05-04 12:36 | 32.01395 | 120.81853 | 31515 ft | 444 kts | 300° |
| 2026-05-04 12:37 | 32.02877 | 120.78744 | 31842 ft | 440 kts | 292° |
| 2026-05-04 12:37 | 32.03935 | 120.75384 | 32182 ft | 436 kts | 284° |
| 2026-05-04 12:37 | 32.04532 | 120.71909 | 32641 ft | 431 kts | 276° |
| 2026-05-04 12:37 | 32.04682 | 120.68405 | 33094 ft | 427 kts | 269° |
| 2026-05-04 12:38 | 32.04488 | 120.64972 | 33539 ft | 424 kts | 265° |
| 2026-05-04 12:38 | 32.04138 | 120.61542 | 33966 ft | 422 kts | 264° |
| 2026-05-04 12:38 | 32.03728 | 120.58110 | 34162 ft | 424 kts | 264° |
| 2026-05-04 12:39 | 32.02905 | 120.51218 | 34185 ft | 422 kts | 264° |
| 2026-05-04 12:39 | 32.02153 | 120.44372 | 34181 ft | 421 kts | 264° |
| 2026-05-04 12:40 | 32.01440 | 120.37520 | 34185 ft | 422 kts | 265° |
| 2026-05-04 12:40 | 32.00734 | 120.30692 | 34179 ft | 422 kts | 265° |
| 2026-05-04 12:41 | 32.00014 | 120.23780 | 34175 ft | 422 kts | 265° |
| 2026-05-04 12:41 | 31.99297 | 120.16959 | 34172 ft | 422 kts | 264° |
| 2026-05-04 12:42 | 31.98571 | 120.10091 | 34179 ft | 422 kts | 265° |
| 2026-05-04 12:42 | 31.97841 | 120.03230 | 34166 ft | 422 kts | 264° |
| 2026-05-04 12:43 | 31.97105 | 119.96341 | 34169 ft | 423 kts | 264° |
| 2026-05-04 12:43 | 31.96373 | 119.89522 | 34147 ft | 422 kts | 264° |
| 2026-05-04 12:44 | 31.95632 | 119.82660 | 34168 ft | 421 kts | 264° |
| 2026-05-04 12:44 | 31.94889 | 119.75817 | 34160 ft | 422 kts | 264° |
| 2026-05-04 12:45 | 31.94135 | 119.68947 | 34155 ft | 423 kts | 264° |
| 2026-05-04 12:45 | 31.93168 | 119.62127 | 34160 ft | 423 kts | 261° |
| 2026-05-04 12:46 | 31.92130 | 119.55355 | 34158 ft | 423 kts | 261° |
| 2026-05-04 12:46 | 31.91161 | 119.48529 | 34155 ft | 425 kts | 262° |
| 2026-05-04 12:47 | 31.90229 | 119.41649 | 34155 ft | 426 kts | 262° |
| 2026-05-04 12:47 | 31.89304 | 119.34767 | 34152 ft | 426 kts | 262° |
| 2026-05-04 12:48 | 31.88370 | 119.27873 | 34142 ft | 425 kts | 262° |
| 2026-05-04 12:48 | 31.87432 | 119.20999 | 34149 ft | 424 kts | 262° |
| 2026-05-04 12:49 | 31.86499 | 119.14196 | 34148 ft | 424 kts | 262° |
| 2026-05-04 12:49 | 31.85555 | 119.07338 | 34145 ft | 425 kts | 262° |
| 2026-05-04 12:50 | 31.84601 | 119.00436 | 34147 ft | 424 kts | 262° |
| 2026-05-04 12:50 | 31.83656 | 118.93624 | 34154 ft | 425 kts | 262° |
| 2026-05-04 12:51 | 31.82701 | 118.86768 | 34148 ft | 426 kts | 262° |
| 2026-05-04 12:51 | 31.81738 | 118.79881 | 34149 ft | 426 kts | 262° |
| 2026-05-04 12:52 | 31.80771 | 118.72999 | 34145 ft | 426 kts | 262° |
| 2026-05-04 12:52 | 31.79802 | 118.66124 | 34130 ft | 425 kts | 262° |
| 2026-05-04 12:53 | 31.78839 | 118.59321 | 34140 ft | 424 kts | 261° |
| 2026-05-04 12:53 | 31.77867 | 118.52487 | 34137 ft | 424 kts | 261° |
| 2026-05-04 12:54 | 31.76894 | 118.45670 | 34135 ft | 424 kts | 261° |
| 2026-05-04 12:54 | 31.75911 | 118.38804 | 34131 ft | 424 kts | 261° |
| 2026-05-04 12:55 | 31.74928 | 118.31973 | 34132 ft | 425 kts | 261° |
| 2026-05-04 12:55 | 31.73937 | 118.25109 | 34129 ft | 426 kts | 261° |
| 2026-05-04 12:56 | 31.72942 | 118.18241 | 34126 ft | 426 kts | 261° |
| 2026-05-04 12:56 | 31.71943 | 118.11379 | 34128 ft | 426 kts | 261° |
| 2026-05-04 12:57 | 31.70765 | 118.04540 | 34109 ft | 427 kts | 258° |
| 2026-05-04 12:57 | 31.69302 | 117.97816 | 34126 ft | 426 kts | 257° |
| 2026-05-04 12:58 | 31.67839 | 117.91085 | 34131 ft | 426 kts | 257° |
| 2026-05-04 12:58 | 31.66419 | 117.84327 | 34142 ft | 426 kts | 258° |
| 2026-05-04 12:59 | 31.65021 | 117.77577 | 34123 ft | 425 kts | 258° |
| 2026-05-04 12:59 | 31.63622 | 117.70844 | 34122 ft | 425 kts | 258° |
| 2026-05-04 13:00 | 31.62213 | 117.64091 | 34126 ft | 425 kts | 258° |
| 2026-05-04 13:00 | 31.60800 | 117.57339 | 34124 ft | 425 kts | 258° |
| 2026-05-04 13:01 | 31.59525 | 117.50615 | 34120 ft | 425 kts | 260° |
| 2026-05-04 13:01 | 31.58364 | 117.43821 | 34131 ft | 424 kts | 260° |
| 2026-05-04 13:02 | 31.57187 | 117.37025 | 34116 ft | 425 kts | 259° |
| 2026-05-04 13:02 | 31.55982 | 117.30243 | 34110 ft | 425 kts | 259° |
| 2026-05-04 13:03 | 31.54779 | 117.23476 | 34116 ft | 425 kts | 259° |
| 2026-05-04 13:03 | 31.53577 | 117.16680 | 34115 ft | 425 kts | 259° |
| 2026-05-04 13:04 | 31.52374 | 117.09890 | 34113 ft | 426 kts | 259° |
| 2026-05-04 13:04 | 31.51164 | 117.03093 | 34113 ft | 426 kts | 259° |
| 2026-05-04 13:05 | 31.49957 | 116.96336 | 34115 ft | 426 kts | 259° |
| 2026-05-04 13:05 | 31.48716 | 116.89545 | 34114 ft | 427 kts | 257° |
| 2026-05-04 13:06 | 31.46564 | 116.83050 | 34109 ft | 431 kts | 244° |
| 2026-05-04 13:06 | 31.43161 | 116.77214 | 34124 ft | 435 kts | 238° |
| 2026-05-04 13:07 | 31.39473 | 116.71590 | 34121 ft | 436 kts | 237° |
| 2026-05-04 13:07 | 31.35750 | 116.65986 | 34132 ft | 436 kts | 237° |
| 2026-05-04 13:08 | 31.32043 | 116.60369 | 34128 ft | 436 kts | 237° |
| 2026-05-04 13:08 | 31.28314 | 116.54698 | 34138 ft | 440 kts | 237° |
| 2026-05-04 13:09 | 31.24608 | 116.49056 | 34136 ft | 440 kts | 237° |
| 2026-05-04 13:09 | 31.20874 | 116.43382 | 34148 ft | 440 kts | 237° |
| 2026-05-04 13:10 | 31.17771 | 116.38670 | 34148 ft | 440 kts | 237° |
| 2026-05-04 13:10 | 31.14039 | 116.33017 | 34158 ft | 440 kts | 237° |
| 2026-05-04 13:11 | 31.10295 | 116.27348 | 34153 ft | 440 kts | 237° |
| 2026-05-04 13:11 | 31.06557 | 116.21694 | 34169 ft | 441 kts | 237° |
| 2026-05-04 13:12 | 31.02819 | 116.16052 | 34165 ft | 442 kts | 237° |
| 2026-05-04 13:12 | 30.99053 | 116.10375 | 34159 ft | 443 kts | 237° |
| 2026-05-04 13:13 | 30.95284 | 116.04704 | 34161 ft | 442 kts | 237° |
| 2026-05-04 13:13 | 30.91505 | 115.99025 | 34145 ft | 442 kts | 237° |
| 2026-05-04 13:14 | 30.87761 | 115.93402 | 34159 ft | 440 kts | 237° |
| 2026-05-04 13:14 | 30.84038 | 115.87820 | 34153 ft | 441 kts | 237° |
| 2026-05-04 13:15 | 30.80290 | 115.82150 | 34154 ft | 441 kts | 237° |
| 2026-05-04 13:15 | 30.76566 | 115.76486 | 34146 ft | 442 kts | 237° |
| 2026-05-04 13:16 | 30.72831 | 115.70813 | 34126 ft | 441 kts | 237° |
| 2026-05-04 13:16 | 30.69094 | 115.65171 | 34146 ft | 439 kts | 237° |
| 2026-05-04 13:17 | 30.65365 | 115.59535 | 34141 ft | 440 kts | 237° |
| 2026-05-04 13:17 | 30.61630 | 115.53895 | 34140 ft | 441 kts | 237° |
| 2026-05-04 13:18 | 30.57901 | 115.48277 | 34127 ft | 441 kts | 237° |
| 2026-05-04 13:18 | 30.54148 | 115.42633 | 34111 ft | 441 kts | 237° |
| 2026-05-04 13:19 | 30.50404 | 115.37017 | 34136 ft | 439 kts | 237° |
| 2026-05-04 13:19 | 30.46966 | 115.31182 | 34139 ft | 434 kts | 245° |
| 2026-05-04 13:20 | 30.44888 | 115.24719 | 34141 ft | 431 kts | 259° |
| 2026-05-04 13:20 | 30.44444 | 115.17813 | 34144 ft | 432 kts | 273° |
| 2026-05-04 13:21 | 30.45065 | 115.10867 | 34134 ft | 433 kts | 275° |
| 2026-05-04 13:21 | 30.45828 | 115.03948 | 34148 ft | 433 kts | 275° |
| 2026-05-04 13:22 | 30.46578 | 114.97014 | 34141 ft | 434 kts | 275° |
| 2026-05-04 13:22 | 30.47296 | 114.90095 | 34140 ft | 436 kts | 275° |
| 2026-05-04 13:23 | 30.48001 | 114.83163 | 34133 ft | 436 kts | 275° |
| 2026-05-04 13:23 | 30.48697 | 114.76279 | 34120 ft | 436 kts | 275° |
| 2026-05-04 13:24 | 30.49373 | 114.69569 | 34113 ft | 436 kts | 275° |
| 2026-05-04 13:24 | 30.50062 | 114.62705 | 34105 ft | 436 kts | 275° |
| 2026-05-04 13:25 | 30.51099 | 114.52290 | 34107 ft | 436 kts | 275° |
| 2026-05-04 13:25 | 30.51753 | 114.45687 | 34100 ft | 436 kts | 275° |
| 2026-05-04 13:26 | 30.52434 | 114.38766 | 34102 ft | 436 kts | 275° |
| 2026-05-04 13:26 | 30.52994 | 114.33037 | 34105 ft | 437 kts | 275° |
| 2026-05-04 13:27 | 30.53663 | 114.26161 | 34111 ft | 438 kts | 275° |
| 2026-05-04 13:27 | 30.54334 | 114.19249 | 34107 ft | 439 kts | 275° |
| 2026-05-04 13:28 | 30.55004 | 114.12200 | 34112 ft | 438 kts | 275° |
| 2026-05-04 13:28 | 30.55678 | 114.05181 | 34113 ft | 437 kts | 275° |
| 2026-05-04 13:29 | 30.56360 | 113.98198 | 34110 ft | 438 kts | 275° |
| 2026-05-04 13:29 | 30.57009 | 113.91168 | 34108 ft | 438 kts | 275° |
| 2026-05-04 13:30 | 30.57598 | 113.84112 | 34107 ft | 438 kts | 271° |
| 2026-05-04 13:30 | 30.57512 | 113.77053 | 34108 ft | 438 kts | 268° |
| 2026-05-04 13:31 | 30.57261 | 113.69972 | 34105 ft | 439 kts | 267° |
| 2026-05-04 13:31 | 30.56982 | 113.62892 | 34105 ft | 440 kts | 267° |
| 2026-05-04 13:32 | 30.56706 | 113.55819 | 34108 ft | 440 kts | 267° |
| 2026-05-04 13:32 | 30.56431 | 113.48729 | 34096 ft | 440 kts | 267° |
| 2026-05-04 13:33 | 30.56153 | 113.41606 | 34102 ft | 441 kts | 268° |
| 2026-05-04 13:33 | 30.55871 | 113.34471 | 34102 ft | 444 kts | 268° |
| 2026-05-04 13:34 | 30.55584 | 113.27314 | 34097 ft | 444 kts | 268° |
| 2026-05-04 13:34 | 30.55292 | 113.20131 | 34102 ft | 444 kts | 268° |
| 2026-05-04 13:35 | 30.54855 | 113.09430 | 34111 ft | 445 kts | 268° |
| 2026-05-04 13:36 | 30.54554 | 113.02242 | 34105 ft | 446 kts | 268° |
| 2026-05-04 13:36 | 30.54246 | 112.95038 | 34100 ft | 447 kts | 268° |
| 2026-05-04 13:37 | 30.53939 | 112.87843 | 34115 ft | 447 kts | 268° |
| 2026-05-04 13:37 | 30.53633 | 112.80682 | 34086 ft | 447 kts | 267° |
| 2026-05-04 13:38 | 30.53311 | 112.73444 | 34103 ft | 446 kts | 268° |
| 2026-05-04 13:38 | 30.52992 | 112.66303 | 34103 ft | 447 kts | 268° |
| 2026-05-04 13:39 | 30.52667 | 112.59112 | 34103 ft | 447 kts | 268° |
| 2026-05-04 13:39 | 30.52339 | 112.51907 | 34099 ft | 447 kts | 267° |
| 2026-05-04 13:40 | 30.52006 | 112.44694 | 34103 ft | 447 kts | 268° |
| 2026-05-04 13:40 | 30.51671 | 112.37507 | 34100 ft | 450 kts | 268° |
| 2026-05-04 13:41 | 30.51329 | 112.30265 | 34103 ft | 450 kts | 268° |
| 2026-05-04 13:41 | 30.50982 | 112.23009 | 34100 ft | 450 kts | 268° |
| 2026-05-04 13:42 | 30.50454 | 112.12125 | 34097 ft | 450 kts | 268° |
| 2026-05-04 13:42 | 30.50097 | 112.04871 | 34105 ft | 453 kts | 268° |
| 2026-05-04 13:43 | 30.49734 | 111.97569 | 34106 ft | 453 kts | 268° |
| 2026-05-04 13:43 | 30.49368 | 111.90283 | 34104 ft | 453 kts | 268° |
| 2026-05-04 13:44 | 30.48996 | 111.82964 | 34102 ft | 453 kts | 268° |
| 2026-05-04 13:44 | 30.48620 | 111.75674 | 34100 ft | 455 kts | 268° |
| 2026-05-04 13:45 | 30.48239 | 111.68324 | 34102 ft | 457 kts | 268° |
| 2026-05-04 13:45 | 30.47850 | 111.61018 | 34102 ft | 455 kts | 268° |
| 2026-05-04 13:46 | 30.47453 | 111.53720 | 34104 ft | 453 kts | 268° |
| 2026-05-04 13:46 | 30.46858 | 111.46435 | 34105 ft | 454 kts | 263° |
| 2026-05-04 13:47 | 30.45913 | 111.39199 | 34104 ft | 454 kts | 263° |
| 2026-05-04 13:47 | 30.44912 | 111.31977 | 34104 ft | 454 kts | 263° |
| 2026-05-04 13:48 | 30.43900 | 111.24741 | 34113 ft | 454 kts | 263° |
| 2026-05-04 13:48 | 30.42911 | 111.17629 | 34113 ft | 454 kts | 263° |
| 2026-05-04 13:49 | 30.41890 | 111.10355 | 34120 ft | 455 kts | 263° |
| 2026-05-04 13:49 | 30.40864 | 111.03066 | 34125 ft | 457 kts | 263° |
| 2026-05-04 13:50 | 30.39837 | 110.95788 | 34134 ft | 458 kts | 263° |
| 2026-05-04 13:50 | 30.38806 | 110.88506 | 34132 ft | 458 kts | 263° |
| 2026-05-04 13:51 | 30.37772 | 110.81239 | 34147 ft | 458 kts | 263° |
| 2026-05-04 13:51 | 30.36735 | 110.73967 | 34142 ft | 456 kts | 263° |
| 2026-05-04 13:52 | 30.35181 | 110.63180 | 34157 ft | 453 kts | 263° |
| 2026-05-04 13:53 | 30.34143 | 110.55978 | 34162 ft | 453 kts | 262° |
| 2026-05-04 13:53 | 30.33095 | 110.48773 | 34152 ft | 453 kts | 263° |
| 2026-05-04 13:54 | 30.31525 | 110.38001 | 34173 ft | 456 kts | 263° |
| 2026-05-04 13:55 | 30.29954 | 110.27210 | 34173 ft | 456 kts | 263° |
| 2026-05-04 13:55 | 30.28352 | 110.16354 | 34173 ft | 457 kts | 263° |
| 2026-05-04 13:56 | 30.27275 | 110.09099 | 34169 ft | 457 kts | 263° |
| 2026-05-04 13:57 | 30.25653 | 109.98223 | 34174 ft | 458 kts | 263° |
| 2026-05-04 13:58 | 30.23484 | 109.83726 | 34165 ft | 456 kts | 263° |
| 2026-05-04 13:58 | 30.21855 | 109.72966 | 34160 ft | 454 kts | 263° |
| 2026-05-04 13:59 | 30.20765 | 109.65761 | 34163 ft | 455 kts | 263° |
| 2026-05-04 14:00 | 30.18548 | 109.55064 | 34179 ft | 457 kts | 257° |
| 2026-05-04 14:00 | 30.15762 | 109.44534 | 34170 ft | 458 kts | 257° |
| 2026-05-04 14:01 | 30.13880 | 109.37521 | 34170 ft | 458 kts | 257° |
| 2026-05-04 14:02 | 30.11065 | 109.26951 | 34171 ft | 459 kts | 257° |
| 2026-05-04 14:02 | 30.09178 | 109.19886 | 34174 ft | 459 kts | 257° |
| 2026-05-04 14:03 | 30.07294 | 109.12874 | 34161 ft | 455 kts | 256° |
| 2026-05-04 14:03 | 30.05412 | 109.05919 | 34172 ft | 453 kts | 257° |
| 2026-05-04 14:04 | 30.02599 | 108.95524 | 34166 ft | 452 kts | 257° |
| 2026-05-04 14:04 | 30.00757 | 108.88556 | 34167 ft | 454 kts | 257° |
| 2026-05-04 14:05 | 29.98037 | 108.78162 | 34170 ft | 453 kts | 257° |
| 2026-05-04 14:06 | 29.96201 | 108.71224 | 34174 ft | 453 kts | 257° |
| 2026-05-04 14:06 | 29.94364 | 108.64289 | 34172 ft | 453 kts | 257° |
| 2026-05-04 14:07 | 29.92518 | 108.57314 | 34167 ft | 453 kts | 257° |
| 2026-05-04 14:07 | 29.90674 | 108.50371 | 34172 ft | 453 kts | 257° |
| 2026-05-04 14:08 | 29.88830 | 108.43465 | 34169 ft | 453 kts | 257° |
| 2026-05-04 14:08 | 29.86995 | 108.36616 | 34156 ft | 453 kts | 258° |
| 2026-05-04 14:09 | 29.84205 | 108.26193 | 34158 ft | 452 kts | 258° |
| 2026-05-04 14:10 | 29.81420 | 108.15801 | 34156 ft | 453 kts | 258° |
| 2026-05-04 14:10 | 29.79554 | 108.08884 | 34156 ft | 453 kts | 257° |
| 2026-05-04 14:11 | 29.77690 | 108.01986 | 34148 ft | 452 kts | 257° |
| 2026-05-04 14:11 | 29.74881 | 107.91609 | 34149 ft | 453 kts | 257° |
| 2026-05-04 14:12 | 29.73005 | 107.84697 | 34115 ft | 452 kts | 257° |
| 2026-05-04 14:13 | 29.70198 | 107.74438 | 34120 ft | 445 kts | 257° |
| 2026-05-04 14:13 | 29.68349 | 107.67693 | 34122 ft | 446 kts | 258° |
| 2026-05-04 14:14 | 29.66654 | 107.60834 | 34122 ft | 443 kts | 263° |
| 2026-05-04 14:14 | 29.66287 | 107.53901 | 34136 ft | 431 kts | 277° |
| 2026-05-04 14:14 | 29.66729 | 107.50495 | 34119 ft | 428 kts | 284° |
| 2026-05-04 14:15 | 29.70071 | 107.37428 | 34104 ft | 427 kts | 288° |
| 2026-05-04 14:16 | 29.72044 | 107.28550 | 34100 ft | 428 kts | 283° |
| 2026-05-04 14:17 | 29.75139 | 107.19023 | 34101 ft | 429 kts | 301° |
| 2026-05-04 14:17 | 29.79010 | 107.13783 | 34102 ft | 434 kts | 312° |
| 2026-05-04 14:18 | 29.81217 | 107.11406 | 34091 ft | 435 kts | 313° |
| 2026-05-04 14:19 | 29.90199 | 107.02120 | 34091 ft | 434 kts | 314° |
| 2026-05-04 14:19 | 29.94684 | 106.97444 | 34095 ft | 434 kts | 314° |
| 2026-05-04 14:20 | 29.99145 | 106.92765 | 34093 ft | 433 kts | 314° |
| 2026-05-04 14:20 | 30.03598 | 106.88086 | 34091 ft | 433 kts | 314° |
| 2026-05-04 14:21 | 30.10291 | 106.81044 | 34096 ft | 434 kts | 314° |
| 2026-05-04 14:21 | 30.14762 | 106.76346 | 34093 ft | 434 kts | 314° |
| 2026-05-04 14:22 | 30.18799 | 106.71301 | 34097 ft | 430 kts | 304° |
| 2026-05-04 14:22 | 30.21653 | 106.65297 | 34090 ft | 428 kts | 293° |
| 2026-05-04 14:23 | 30.24938 | 106.55706 | 33789 ft | 428 kts | 292° |
| 2026-05-04 14:23 | 30.26028 | 106.52497 | 33527 ft | 430 kts | 292° |
| 2026-05-04 14:24 | 30.27124 | 106.49269 | 33262 ft | 432 kts | 292° |
| 2026-05-04 14:24 | 30.28219 | 106.46039 | 33031 ft | 433 kts | 292° |
| 2026-05-04 14:24 | 30.29325 | 106.42776 | 32773 ft | 435 kts | 292° |
| 2026-05-04 14:24 | 30.30427 | 106.39521 | 32513 ft | 436 kts | 292° |
| 2026-05-04 14:25 | 30.31540 | 106.36231 | 32275 ft | 438 kts | 292° |
| 2026-05-04 14:25 | 30.33765 | 106.29645 | 31763 ft | 439 kts | 292° |
| 2026-05-04 14:25 | 30.34876 | 106.26351 | 31523 ft | 441 kts | 292° |
| 2026-05-04 14:26 | 30.35977 | 106.23084 | 31289 ft | 442 kts | 292° |
| 2026-05-04 14:26 | 30.37088 | 106.19782 | 31052 ft | 443 kts | 292° |
| 2026-05-04 14:26 | 30.38208 | 106.16451 | 30811 ft | 444 kts | 292° |
| 2026-05-04 14:26 | 30.39326 | 106.13124 | 30587 ft | 446 kts | 292° |
| 2026-05-04 14:27 | 30.40455 | 106.09762 | 30359 ft | 447 kts | 292° |
| 2026-05-04 14:27 | 30.41577 | 106.06414 | 30153 ft | 448 kts | 292° |
| 2026-05-04 14:27 | 30.43839 | 105.99658 | 30081 ft | 450 kts | 292° |
| 2026-05-04 14:28 | 30.46097 | 105.92901 | 30082 ft | 450 kts | 292° |
| 2026-05-04 14:28 | 30.48356 | 105.86127 | 29845 ft | 449 kts | 292° |
| 2026-05-04 14:29 | 30.50589 | 105.79414 | 29316 ft | 449 kts | 292° |
| 2026-05-04 14:29 | 30.52840 | 105.72637 | 28917 ft | 448 kts | 292° |
| 2026-05-04 14:30 | 30.53951 | 105.69285 | 28704 ft | 447 kts | 292° |
| 2026-05-04 14:30 | 30.55067 | 105.65913 | 28557 ft | 446 kts | 292° |
| 2026-05-04 14:30 | 30.57294 | 105.59183 | 28272 ft | 445 kts | 292° |
| 2026-05-04 14:31 | 30.58382 | 105.55890 | 28166 ft | 446 kts | 292° |
| 2026-05-04 14:31 | 30.60614 | 105.49126 | 27899 ft | 448 kts | 292° |
| 2026-05-04 14:32 | 30.62824 | 105.42369 | 27636 ft | 447 kts | 291° |
| 2026-05-04 14:32 | 30.63678 | 105.38893 | 27508 ft | 449 kts | 284° |
| 2026-05-04 14:32 | 30.64083 | 105.35294 | 27384 ft | 452 kts | 276° |
| 2026-05-04 14:32 | 30.63904 | 105.31644 | 27195 ft | 456 kts | 266° |
| 2026-05-04 14:33 | 30.63450 | 105.28007 | 26964 ft | 456 kts | 265° |
| 2026-05-04 14:33 | 30.62953 | 105.24424 | 26729 ft | 455 kts | 265° |
| 2026-05-04 14:33 | 30.62429 | 105.20751 | 26476 ft | 454 kts | 264° |
| 2026-05-04 14:33 | 30.61909 | 105.17145 | 26222 ft | 453 kts | 264° |
| 2026-05-04 14:34 | 30.61384 | 105.13554 | 25983 ft | 450 kts | 264° |
| 2026-05-04 14:34 | 30.60865 | 105.10029 | 25737 ft | 448 kts | 264° |
| 2026-05-04 14:34 | 30.60332 | 105.06418 | 25489 ft | 448 kts | 264° |
| 2026-05-04 14:34 | 30.59811 | 105.02899 | 25281 ft | 447 kts | 264° |
| 2026-05-04 14:35 | 30.59107 | 104.99370 | 25038 ft | 450 kts | 257° |
| 2026-05-04 14:35 | 30.58068 | 104.95930 | 24798 ft | 451 kts | 253° |
| 2026-05-04 14:35 | 30.56945 | 104.92536 | 24615 ft | 451 kts | 253° |
| 2026-05-04 14:35 | 30.55806 | 104.89159 | 24581 ft | 452 kts | 253° |
| 2026-05-04 14:36 | 30.54651 | 104.85748 | 24583 ft | 453 kts | 253° |
| 2026-05-04 14:36 | 30.53495 | 104.82349 | 24589 ft | 453 kts | 253° |
| 2026-05-04 14:36 | 30.52333 | 104.78944 | 24587 ft | 452 kts | 253° |
| 2026-05-04 14:36 | 30.51176 | 104.75562 | 24591 ft | 452 kts | 253° |
| 2026-05-04 14:37 | 30.50019 | 104.72182 | 24437 ft | 452 kts | 253° |
| 2026-05-04 14:37 | 30.48855 | 104.68790 | 24190 ft | 451 kts | 253° |
| 2026-05-04 14:37 | 30.47690 | 104.65395 | 23875 ft | 452 kts | 253° |
| 2026-05-04 14:37 | 30.46543 | 104.62059 | 23250 ft | 451 kts | 252° |
| 2026-05-04 14:38 | 30.45387 | 104.58699 | 22451 ft | 450 kts | 252° |
| 2026-05-04 14:38 | 30.44211 | 104.55285 | 21627 ft | 448 kts | 252° |
| 2026-05-04 14:38 | 30.43072 | 104.51979 | 20786 ft | 447 kts | 252° |
| 2026-05-04 14:38 | 30.41919 | 104.48638 | 20049 ft | 444 kts | 252° |
| 2026-05-04 14:39 | 30.40776 | 104.45332 | 19345 ft | 440 kts | 252° |
| 2026-05-04 14:39 | 30.39644 | 104.42059 | 18685 ft | 436 kts | 251° |
| 2026-05-04 14:39 | 30.38523 | 104.38819 | 17948 ft | 432 kts | 251° |
| 2026-05-04 14:40 | 30.36357 | 104.32580 | 16868 ft | 393 kts | 251° |
| 2026-05-04 14:40 | 30.35350 | 104.29683 | 16227 ft | 384 kts | 251° |
| 2026-05-04 14:40 | 30.34356 | 104.26813 | 15538 ft | 385 kts | 250° |
| 2026-05-04 14:40 | 30.33361 | 104.23940 | 14870 ft | 385 kts | 250° |
| 2026-05-04 14:41 | 30.32370 | 104.21087 | 14269 ft | 384 kts | 249° |
| 2026-05-04 14:41 | 30.31386 | 104.18259 | 13913 ft | 375 kts | 249° |
| 2026-05-04 14:41 | 30.29502 | 104.12860 | 13471 ft | 349 kts | 249° |
| 2026-05-04 14:42 | 30.27749 | 104.07840 | 12805 ft | 322 kts | 249° |
| 2026-05-04 14:42 | 30.26923 | 104.05474 | 12113 ft | 314 kts | 248° |
| 2026-05-04 14:42 | 30.26114 | 104.03159 | 11412 ft | 307 kts | 248° |
| 2026-05-04 14:43 | 30.25328 | 104.00911 | 10960 ft | 293 kts | 248° |
| 2026-05-04 14:43 | 30.24587 | 103.98793 | 10588 ft | 279 kts | 248° |
| 2026-05-04 14:43 | 30.23868 | 103.96784 | 10113 ft | 269 kts | 245° |
| 2026-05-04 14:43 | 30.22819 | 103.95082 | 9641 ft | 259 kts | 221° |
| 2026-05-04 14:44 | 30.21346 | 103.93965 | 9126 ft | 253 kts | 209° |
| 2026-05-04 14:44 | 30.19791 | 103.93025 | 8610 ft | 248 kts | 207° |
| 2026-05-04 14:44 | 30.18409 | 103.91917 | 8104 ft | 242 kts | 228° |
| 2026-05-04 14:44 | 30.17670 | 103.90318 | 7641 ft | 237 kts | 257° |
| 2026-05-04 14:45 | 30.17593 | 103.89512 | 7482 ft | 234 kts | 270° |
| 2026-05-04 14:45 | 30.17766 | 103.88396 | 7241 ft | 231 kts | 290° |
| 2026-05-04 14:45 | 30.18644 | 103.86885 | 6890 ft | 226 kts | 313° |
| 2026-05-04 14:45 | 30.19767 | 103.85674 | 6568 ft | 223 kts | 318° |
| 2026-05-04 14:46 | 30.21116 | 103.84860 | 6341 ft | 217 kts | 347° |
| 2026-05-04 14:46 | 30.22592 | 103.84646 | 6107 ft | 212 kts | 356° |
| 2026-05-04 14:46 | 30.24049 | 103.84568 | 5848 ft | 208 kts | 357° |
| 2026-05-04 14:46 | 30.25476 | 103.84516 | 5620 ft | 203 kts | 358° |
| 2026-05-04 14:47 | 30.26892 | 103.84468 | 5376 ft | 203 kts | 358° |
| 2026-05-04 14:47 | 30.28293 | 103.84420 | 5135 ft | 203 kts | 358° |
| 2026-05-04 14:47 | 30.29703 | 103.84369 | 4939 ft | 202 kts | 358° |
| 2026-05-04 14:47 | 30.31102 | 103.84359 | 4889 ft | 204 kts | 4° |
| 2026-05-04 14:48 | 30.32481 | 103.84688 | 4897 ft | 204 kts | 18° |
| 2026-05-04 14:48 | 30.33806 | 103.85270 | 4901 ft | 203 kts | 23° |
| 2026-05-04 14:48 | 30.35123 | 103.85882 | 4810 ft | 204 kts | 22° |
| 2026-05-04 14:48 | 30.36437 | 103.86496 | 4565 ft | 204 kts | 22° |
| 2026-05-04 14:49 | 30.37755 | 103.87106 | 4309 ft | 204 kts | 22° |
| 2026-05-04 14:49 | 30.39075 | 103.87706 | 4077 ft | 203 kts | 22° |
| 2026-05-04 14:49 | 30.40376 | 103.88290 | 3919 ft | 202 kts | 22° |
| 2026-05-04 14:49 | 30.41682 | 103.88885 | 3805 ft | 203 kts | 22° |
| 2026-05-04 14:50 | 30.42977 | 103.89485 | 3557 ft | 199 kts | 23° |
| 2026-05-04 14:50 | 30.44245 | 103.90079 | 3309 ft | 191 kts | 24° |
| 2026-05-04 14:50 | 30.45438 | 103.90635 | 3087 ft | 181 kts | 23° |
| 2026-05-04 14:50 | 30.46573 | 103.91163 | 2847 ft | 172 kts | 24° |
| 2026-05-04 14:51 | 30.47660 | 103.91670 | 2636 ft | 164 kts | 24° |
| 2026-05-04 14:51 | 30.48678 | 103.92146 | 2427 ft | 152 kts | 22° |
| 2026-05-04 14:51 | 30.49623 | 103.92586 | 2226 ft | 145 kts | 22° |
| 2026-05-04 14:51 | 30.50537 | 103.93013 | 2012 ft | 144 kts | 22° |
| 2026-05-04 14:52 | 30.51456 | 103.93443 | 1830 ft | 142 kts | 21° |
| 2026-05-04 14:52 | 30.52372 | 103.93865 | 1691 ft | 141 kts | 21° |
| 2026-05-04 14:52 | 30.53131 | 103.94239 | 1680 ft | 112 kts | 51° |